Meally, Kentucky
Current Conditions -  °F | °C
As of 2:15 PM on Saturday 25 Oct 2014 (Local Time) from KSJS Reporting Station
Overcast Overcast  
Wind Chill: 64°   Ceiling: 4500
Heat Index: 64°   Visibility: 10mi
Dew Point: 50°   Wind: 5mph
Humidity: 60%   Direction: 230°SW
Pressure: 30"   Gusts: NA
Location:  37.8°N, 82.74°W
Report Text: KSJS 251815Z AUTO 23004KT 10SM BKN045 OVC055 18/10 A3000 RMK AO2 T01770099
Loading
Personal Weather Stations






























Interactive Weather Map
Tropical Storm Tracking
New forecast layout! Learn more

10-Day Weather Forecast

Advertisements
Track Severe Weather on mobile